createdAt,value
2019-01-28T00:01:35.247Z,3.30
2019-01-28T00:04:05.535Z,2.73
2019-01-28T00:06:35.637Z,2.83
2019-01-28T00:09:06.566Z,2.63
2019-01-28T00:11:36.672Z,2.90
2019-01-28T00:14:06.783Z,3.00
2019-01-28T00:16:36.881Z,2.67
2019-01-28T00:19:06.931Z,2.73
2019-01-28T00:21:37.029Z,3.10
2019-01-28T00:24:07.104Z,2.97
2019-01-28T00:26:37.138Z,3.07
2019-01-28T00:29:07.177Z,2.70
2019-01-28T00:31:37.204Z,2.57
2019-01-28T00:34:07.264Z,2.13
2019-01-28T00:36:37.488Z,2.47
2019-01-28T00:39:08.402Z,2.67
2019-01-28T00:41:38.495Z,2.60
2019-01-28T00:44:08.493Z,2.43
2019-01-28T00:46:38.533Z,2.13
2019-01-28T00:49:08.636Z,2.30
2019-01-28T00:51:38.854Z,2.30
2019-01-28T00:54:08.881Z,2.30
2019-01-28T00:56:38.936Z,2.63
2019-01-28T00:59:09.069Z,2.40
2019-01-28T01:01:39.172Z,2.60
2019-01-28T01:04:09.364Z,2.30
2019-01-28T01:06:39.396Z,2.37
2019-01-28T01:09:09.738Z,2.63
2019-01-28T01:11:39.717Z,2.60
2019-01-28T01:14:09.708Z,2.37
2019-01-28T01:16:39.725Z,2.57
2019-01-28T01:19:09.856Z,2.20
2019-01-28T01:21:39.878Z,2.80
2019-01-28T01:24:09.944Z,2.10
2019-01-28T01:26:40.010Z,2.27
2019-01-28T01:29:10.005Z,2.33
2019-01-28T01:31:40.083Z,2.27
2019-01-28T01:34:10.103Z,2.60
2019-01-28T01:36:40.133Z,2.20
2019-01-28T01:39:10.329Z,2.30
2019-01-28T01:41:40.369Z,1.98
2019-01-28T01:44:10.493Z,2.27
2019-01-28T01:46:40.705Z,2.40
2019-01-28T01:49:10.875Z,2.40
2019-01-28T01:51:40.866Z,1.77
2019-01-28T01:54:10.902Z,1.87
2019-01-28T01:56:40.950Z,2.40
2019-01-28T01:59:11.027Z,2.33
2019-01-28T02:01:41.093Z,1.70
2019-01-28T02:04:11.078Z,2.03
2019-01-28T02:06:41.193Z,2.50
2019-01-28T02:09:11.259Z,1.90
2019-01-28T02:11:41.377Z,2.20
2019-01-28T02:14:11.474Z,1.63
2019-01-28T02:16:41.581Z,1.87
2019-01-28T02:19:11.797Z,2.20
2019-01-28T02:21:41.898Z,2.10
2019-01-28T02:24:12.007Z,2.20
2019-01-28T02:26:42.091Z,1.97
2019-01-28T02:29:12.156Z,1.63
2019-01-28T02:31:42.258Z,2.10
2019-01-28T02:34:12.434Z,2.07
2019-01-28T02:36:42.528Z,2.10
2019-01-28T02:39:12.591Z,1.60
2019-01-28T02:41:42.575Z,2.07
2019-01-28T02:44:12.622Z,1.90
2019-01-28T02:46:42.629Z,1.50
2019-01-28T02:49:12.765Z,1.80
2019-01-28T02:51:42.940Z,2.03
2019-01-28T02:54:12.906Z,1.93
2019-01-28T02:56:42.972Z,2.13
2019-01-28T02:59:13.009Z,2.13
2019-01-28T03:01:43.079Z,1.67
2019-01-28T03:04:14.004Z,2.20
2019-01-28T03:06:44.030Z,1.67
2019-01-28T03:09:14.125Z,1.50
2019-01-28T03:11:44.348Z,1.93
2019-01-28T03:14:15.106Z,1.70
2019-01-28T03:16:45.200Z,1.90
2019-01-28T03:19:15.210Z,2.03
2019-01-28T03:21:45.182Z,1.60
2019-01-28T03:24:15.302Z,1.93
2019-01-28T03:26:45.393Z,1.90
2019-01-28T03:29:15.502Z,1.97
2019-01-28T03:31:45.611Z,2.00
2019-01-28T03:34:16.457Z,2.00
2019-01-28T03:36:46.562Z,2.10
2019-01-28T03:39:16.559Z,2.10
2019-01-28T03:41:46.725Z,2.03
2019-01-28T03:44:17.032Z,1.90
2019-01-28T03:46:48.484Z,1.67
2019-01-28T03:49:18.548Z,1.97
2019-01-28T03:51:48.675Z,1.97
2019-01-28T03:54:19.125Z,1.63
2019-01-28T03:56:49.207Z,2.00
2019-01-28T03:59:19.423Z,1.67
2019-01-28T04:01:49.445Z,1.53
2019-01-28T04:04:19.546Z,2.23
2019-01-28T04:06:49.616Z,1.87
2019-01-28T04:09:19.727Z,2.07
2019-01-28T04:11:49.815Z,1.67
2019-01-28T04:14:20.167Z,1.60
2019-01-28T04:16:50.230Z,1.50
2019-01-28T04:19:20.421Z,1.93
2019-01-28T04:21:50.426Z,2.00
2019-01-28T04:24:20.569Z,2.00
2019-01-28T04:26:50.630Z,1.80
2019-01-28T04:29:20.620Z,2.10
2019-01-28T04:31:50.722Z,2.07
2019-01-28T04:34:20.807Z,2.03
2019-01-28T04:36:50.879Z,2.00
2019-01-28T04:39:20.932Z,2.20
2019-01-28T04:41:50.990Z,2.20
2019-01-28T04:44:20.967Z,1.90
2019-01-28T04:46:51.042Z,1.93
2019-01-28T04:49:21.249Z,2.20
2019-01-28T04:51:51.327Z,1.80
2019-01-28T04:54:21.359Z,2.30
2019-01-28T04:56:51.417Z,1.80
2019-01-28T04:59:21.480Z,2.07
2019-01-28T05:01:51.524Z,2.23
2019-01-28T05:04:21.493Z,2.07
2019-01-28T05:06:51.671Z,1.90
2019-01-28T05:09:21.821Z,1.93
2019-01-28T05:11:51.934Z,2.10
2019-01-28T05:14:21.936Z,2.27
2019-01-28T05:16:52.015Z,2.80
2019-01-28T05:19:22.137Z,2.43
2019-01-28T05:21:52.401Z,2.20
2019-01-28T05:24:22.556Z,3.50
2019-01-28T05:26:52.688Z,1.80
2019-01-28T05:29:22.693Z,2.20
2019-01-28T05:31:52.866Z,2.73
2019-01-28T05:34:22.964Z,2.40
2019-01-28T05:36:52.985Z,2.40
2019-01-28T05:39:22.990Z,2.30
2019-01-28T05:41:53.121Z,2.60
2019-01-28T05:44:23.178Z,2.23
2019-01-28T05:46:53.233Z,2.10
2019-01-28T05:49:23.503Z,2.23
2019-01-28T05:51:53.622Z,2.80
2019-01-28T05:54:23.736Z,1.80
2019-01-28T05:56:53.870Z,2.47
2019-01-28T05:59:23.912Z,2.60
2019-01-28T06:01:54.081Z,2.30
2019-01-28T06:04:25.715Z,2.03
2019-01-28T06:06:58.476Z,2.40
2019-01-28T06:09:28.753Z,2.03
2019-01-28T06:11:58.935Z,2.27
2019-01-28T06:14:28.892Z,2.30
2019-01-28T06:16:59.041Z,2.20
2019-01-28T06:19:29.160Z,2.37
2019-01-28T06:22:00.127Z,2.10
2019-01-28T06:24:30.164Z,2.60
2019-01-28T06:27:00.263Z,2.13
2019-01-28T06:29:30.280Z,2.77
2019-01-28T06:32:00.276Z,2.70
2019-01-28T06:34:30.343Z,2.73
2019-01-28T06:37:00.529Z,3.00
2019-01-28T06:39:30.652Z,2.40
2019-01-28T06:42:00.887Z,3.50
2019-01-28T06:44:31.079Z,2.50
2019-01-28T06:47:01.609Z,3.70
2019-01-28T06:49:31.785Z,1.77
2019-01-28T06:52:01.980Z,2.97
2019-01-28T06:54:32.064Z,3.07
2019-01-28T06:57:02.198Z,2.20
2019-01-28T06:59:32.509Z,3.60
2019-01-28T07:02:02.904Z,2.90
2019-01-28T07:04:33.047Z,2.47
2019-01-28T07:07:03.829Z,2.90
2019-01-28T07:09:33.993Z,3.03
2019-01-28T07:12:04.719Z,2.35
2019-01-28T07:14:34.991Z,3.27
2019-01-28T07:17:05.219Z,3.50
2019-01-28T07:19:35.368Z,2.73
2019-01-28T07:22:05.442Z,2.80
2019-01-28T07:24:37.652Z,3.10
2019-01-28T07:27:07.813Z,3.50
2019-01-28T07:29:37.892Z,2.77
2019-01-28T07:32:09.280Z,2.53
2019-01-28T07:34:39.483Z,3.10
2019-01-28T07:37:09.655Z,2.37
2019-01-28T07:39:39.968Z,2.57
2019-01-28T07:42:10.115Z,3.10
2019-01-28T07:44:41.758Z,3.07
2019-01-28T07:47:11.978Z,2.83
2019-01-28T07:49:42.036Z,3.13
2019-01-28T07:52:12.158Z,3.33
2019-01-28T07:54:43.983Z,3.13
2019-01-28T07:57:14.243Z,3.93
2019-01-28T07:59:44.587Z,3.43
2019-01-28T08:02:14.721Z,3.10
2019-01-28T08:04:44.833Z,3.10
2019-01-28T08:07:15.061Z,3.63
2019-01-28T08:09:45.294Z,3.93
2019-01-28T08:12:15.451Z,3.97
2019-01-28T08:14:45.618Z,3.60
2019-01-28T08:17:15.762Z,3.63
2019-01-28T08:19:45.885Z,3.33
2019-01-28T08:22:15.966Z,3.60
2019-01-28T08:24:47.915Z,3.63
2019-01-28T08:27:18.087Z,4.23
2019-01-28T08:29:48.331Z,3.60
2019-01-28T08:32:18.516Z,3.33
2019-01-28T08:34:49.556Z,3.60
2019-01-28T08:37:19.815Z,4.50
2019-01-28T08:39:49.987Z,4.30
2019-01-28T08:42:20.114Z,4.87
2019-01-28T08:44:50.260Z,6.00
2019-01-28T08:47:20.424Z,4.17
2019-01-28T08:49:50.496Z,4.23
2019-01-28T08:52:22.397Z,5.10
2019-01-28T08:54:52.451Z,4.47
2019-01-28T08:57:22.663Z,4.80
2019-01-28T08:59:52.732Z,4.80
2019-01-28T09:02:22.946Z,4.43
2019-01-28T09:04:53.514Z,4.50
2019-01-28T09:07:24.008Z,4.40
2019-01-28T09:09:54.412Z,4.73
2019-01-28T09:12:24.868Z,4.13
2019-01-28T09:14:55.076Z,4.67
2019-01-28T09:17:25.508Z,4.27
2019-01-28T09:19:56.201Z,4.50
2019-01-28T09:22:26.269Z,4.00
2019-01-28T09:24:56.393Z,4.57
2019-01-28T09:27:26.678Z,2.97
2019-01-28T09:29:56.808Z,3.53
2019-01-28T09:32:26.909Z,2.63
2019-01-28T09:34:57.157Z,2.90
2019-01-28T09:37:27.319Z,2.00
2019-01-28T09:39:57.505Z,2.20
2019-01-28T09:42:27.685Z,2.87
2019-01-28T09:44:57.868Z,2.50
2019-01-28T09:47:28.208Z,2.13
2019-01-28T09:49:58.381Z,2.30
2019-01-28T09:52:29.049Z,2.30
2019-01-28T09:55:00.248Z,1.50
2019-01-28T09:57:30.590Z,1.67
2019-01-28T10:00:00.838Z,1.90
2019-01-28T10:02:30.903Z,1.73
2019-01-28T10:05:01.138Z,1.40
2019-01-28T10:07:31.370Z,1.50
2019-01-28T10:10:01.518Z,1.47
2019-01-28T10:12:31.618Z,1.53
2019-01-28T10:15:04.915Z,1.50
2019-01-28T10:17:35.133Z,1.80
2019-01-28T10:20:07.029Z,1.70
2019-01-28T10:22:37.296Z,8.97
2019-01-28T10:25:08.112Z,2.00
2019-01-28T10:27:38.511Z,1.90
2019-01-28T10:30:09.351Z,2.13
2019-01-28T10:32:39.554Z,1.77
2019-01-28T10:35:09.722Z,1.50
2019-01-28T10:37:39.746Z,1.57
2019-01-28T10:40:12.849Z,1.73
2019-01-28T10:42:43.271Z,1.20
2019-01-28T10:45:13.737Z,1.87
2019-01-28T10:47:45.615Z,0.90
2019-01-28T10:50:21.731Z,1.23
2019-01-28T10:52:48.898Z,1.03
2019-01-28T10:55:19.819Z,0.97
2019-01-28T10:57:50.030Z,0.57
2019-01-28T11:00:22.127Z,0.20
2019-01-28T11:02:52.356Z,0.80
2019-01-28T11:05:22.907Z,0.77
2019-01-28T11:07:53.323Z,0.20
2019-01-28T11:10:23.538Z,0.53
2019-01-28T11:12:53.773Z,0.20
2019-01-28T11:15:25.155Z,0.30
2019-01-28T11:17:55.582Z,0.70
2019-01-28T11:20:25.708Z,0.23
2019-01-28T11:22:55.880Z,0.77
2019-01-28T11:25:27.286Z,0.60
2019-01-28T11:27:57.548Z,0.50
2019-01-28T11:30:33.687Z,0.30
2019-01-28T11:33:04.868Z,0.50
2019-01-28T11:35:35.728Z,0.13
2019-01-28T11:38:06.260Z,2.37
2019-01-28T11:40:37.693Z,1.23
2019-01-28T11:43:07.794Z,1.07
2019-01-28T11:45:39.883Z,0.83
2019-01-28T11:48:11.138Z,0.40
2019-01-28T11:50:41.330Z,0.83
2019-01-28T11:53:11.401Z,0.67
2019-01-28T11:55:41.564Z,0.50
2019-01-28T11:58:11.919Z,0.87
2019-01-28T12:00:52.606Z,0.70
2019-01-28T12:03:22.656Z,0.43
2019-01-28T12:05:52.882Z,1.00
2019-01-28T12:08:22.976Z,0.80
2019-01-28T12:10:53.619Z,0.80
2019-01-28T12:13:24.314Z,0.87
2019-01-28T12:15:54.719Z,0.47
2019-01-28T12:18:24.793Z,0.67
2019-01-28T12:20:55.006Z,0.70
2019-01-28T12:23:25.720Z,0.70
2019-01-28T12:25:55.927Z,1.30
2019-01-28T12:28:26.138Z,0.60
2019-01-28T12:30:56.263Z,0.90
2019-01-28T12:33:26.517Z,0.20
2019-01-28T12:35:56.582Z,0.70
2019-01-28T12:38:26.717Z,1.00
2019-01-28T12:40:56.861Z,0.80
2019-01-28T12:43:26.967Z,0.77
2019-01-28T12:45:57.012Z,0.83
2019-01-28T12:48:27.080Z,1.30
2019-01-28T12:50:57.192Z,0.70
2019-01-28T12:53:27.695Z,0.90
2019-01-28T12:55:57.762Z,1.37
2019-01-28T12:58:27.757Z,0.80
2019-01-28T13:01:02.392Z,1.07
2019-01-28T13:03:32.645Z,1.13
2019-01-28T13:06:02.732Z,0.97
2019-01-28T13:08:32.872Z,1.00
2019-01-28T13:11:03.044Z,0.50
2019-01-28T13:13:33.135Z,0.90
2019-01-28T13:16:03.267Z,0.70
2019-01-28T13:18:33.364Z,1.33
2019-01-28T13:21:04.348Z,0.33
2019-01-28T13:23:34.517Z,0.60
2019-01-28T13:26:05.766Z,0.57
2019-01-28T13:28:35.770Z,0.67
2019-01-28T13:31:05.903Z,0.90
2019-01-28T13:33:36.021Z,0.70
2019-01-28T13:36:09.391Z,0.77
2019-01-28T13:38:37.760Z,0.63
2019-01-28T13:41:07.911Z,0.85
2019-01-28T13:43:38.088Z,0.93
2019-01-28T13:46:08.474Z,0.40
2019-01-28T13:48:38.669Z,0.53
2019-01-28T13:51:08.751Z,0.57
2019-01-28T13:53:41.505Z,1.03
2019-01-28T13:56:11.866Z,0.80
2019-01-28T13:58:42.065Z,0.93
2019-01-28T14:01:12.428Z,1.10
2019-01-28T14:03:43.594Z,1.00
2019-01-28T14:06:15.005Z,1.07
2019-01-28T14:08:45.735Z,1.20
2019-01-28T14:11:15.881Z,0.83
2019-01-28T14:13:48.176Z,1.00
2019-01-28T14:16:18.318Z,2.30
2019-01-28T14:18:48.619Z,1.17
2019-01-28T14:21:19.153Z,1.23
2019-01-28T14:23:49.472Z,0.83
2019-01-28T14:26:19.599Z,1.00
2019-01-28T14:28:53.976Z,0.77
2019-01-28T14:31:24.081Z,2.30
2019-01-28T14:33:54.228Z,1.30
2019-01-28T14:36:24.526Z,1.53
2019-01-28T14:38:54.778Z,1.27
2019-01-28T14:41:25.227Z,1.20
2019-01-28T14:43:55.345Z,1.10
2019-01-28T14:46:25.381Z,0.93
2019-01-28T14:48:55.579Z,1.70
2019-01-28T14:51:25.638Z,2.87
2019-01-28T14:53:57.183Z,1.33
2019-01-28T14:56:27.504Z,1.77
2019-01-28T14:58:57.480Z,1.53
2019-01-28T15:01:28.393Z,1.80
2019-01-28T15:03:58.456Z,1.23
2019-01-28T15:06:28.609Z,1.63
2019-01-28T15:09:00.231Z,1.43
2019-01-28T15:11:30.278Z,2.10
2019-01-28T15:14:01.303Z,1.03
2019-01-28T15:16:31.444Z,1.50
2019-01-28T15:19:01.671Z,1.87
2019-01-28T15:21:32.062Z,1.83
2019-01-28T15:24:02.206Z,1.50
2019-01-28T15:26:32.345Z,1.97
2019-01-28T15:29:02.686Z,2.00
2019-01-28T15:31:32.834Z,2.30
2019-01-28T15:34:02.900Z,1.70
2019-01-28T15:36:33.361Z,2.00
2019-01-28T15:39:07.151Z,2.20
2019-01-28T15:41:39.870Z,1.67
2019-01-28T15:44:10.007Z,1.70
2019-01-28T15:46:40.397Z,1.60
2019-01-28T15:49:10.640Z,2.00
2019-01-28T15:51:40.654Z,1.83
2019-01-28T15:54:10.694Z,1.60
2019-01-28T15:56:40.698Z,1.53
2019-01-28T15:59:10.848Z,2.23
2019-01-28T16:01:41.041Z,1.20
2019-01-28T16:04:11.221Z,2.10
2019-01-28T16:06:41.264Z,1.23
2019-01-28T16:09:11.392Z,1.67
2019-01-28T16:11:43.034Z,1.53
2019-01-28T16:14:13.041Z,1.33
2019-01-28T16:16:47.470Z,1.63
2019-01-28T16:19:17.566Z,1.70
2019-01-28T16:21:47.669Z,1.67
2019-01-28T16:24:17.741Z,1.97
2019-01-28T16:26:47.918Z,1.27
2019-01-28T16:29:18.025Z,1.33
2019-01-28T16:31:48.514Z,1.70
2019-01-28T16:34:18.835Z,1.40
2019-01-28T16:36:49.213Z,1.50
2019-01-28T16:39:19.693Z,1.97
2019-01-28T16:41:50.341Z,2.10
2019-01-28T16:44:21.683Z,2.07
2019-01-28T16:46:51.754Z,2.10
2019-01-28T16:49:23.434Z,1.50
2019-01-28T16:51:53.554Z,1.60
2019-01-28T16:54:23.612Z,1.40
2019-01-28T16:56:53.675Z,2.70
2019-01-28T16:59:23.851Z,2.00
2019-01-28T17:01:54.234Z,1.93
2019-01-28T17:04:24.370Z,2.00
2019-01-28T17:06:55.534Z,2.10
2019-01-28T17:09:25.696Z,1.70
2019-01-28T17:11:55.681Z,4.60
2019-01-28T17:14:25.778Z,2.07
2019-01-28T17:16:55.837Z,2.20
2019-01-28T17:19:26.021Z,1.77
2019-01-28T17:21:56.349Z,1.80
2019-01-28T17:24:27.317Z,1.87
2019-01-28T17:26:57.715Z,2.10
2019-01-28T17:29:27.967Z,2.20
2019-01-28T17:31:58.199Z,2.20
2019-01-28T17:34:28.480Z,1.90
2019-01-28T17:37:01.359Z,3.10
2019-01-28T17:39:32.406Z,3.13
2019-01-28T17:42:02.594Z,2.33
2019-01-28T17:44:32.740Z,1.77
2019-01-28T17:47:02.889Z,2.10
2019-01-28T17:49:32.885Z,2.50
2019-01-28T17:52:02.923Z,1.90
2019-01-28T17:54:33.124Z,2.17
2019-01-28T17:57:04.001Z,2.00
2019-01-28T17:59:34.653Z,1.67
2019-01-28T18:02:04.761Z,1.65
2019-01-28T18:04:34.850Z,2.37
2019-01-28T18:07:04.951Z,1.73
2019-01-28T18:09:35.028Z,1.80
2019-01-28T18:12:05.152Z,2.33
2019-01-28T18:14:35.165Z,2.03
2019-01-28T18:17:05.295Z,2.40
2019-01-28T18:19:35.275Z,1.50
2019-01-28T18:22:05.424Z,1.93
2019-01-28T18:24:35.526Z,2.03
2019-01-28T18:27:06.507Z,2.07
2019-01-28T18:29:36.568Z,2.00
2019-01-28T18:32:06.646Z,2.00
2019-01-28T18:34:36.803Z,1.57
2019-01-28T18:37:06.858Z,1.80
2019-01-28T18:39:36.873Z,1.87
2019-01-28T18:42:06.932Z,2.30
2019-01-28T18:44:37.010Z,1.60
2019-01-28T18:47:07.169Z,1.60
2019-01-28T18:49:37.565Z,2.20
2019-01-28T18:52:07.706Z,1.37
2019-01-28T18:54:37.919Z,2.53
2019-01-28T18:57:08.024Z,1.67
2019-01-28T18:59:38.024Z,1.27
2019-01-28T19:02:08.086Z,1.60
2019-01-28T19:04:40.170Z,1.33
2019-01-28T19:07:28.386Z,1.13
2019-01-28T19:10:06.439Z,1.47
2019-01-28T19:12:49.541Z,1.20
2019-01-28T19:15:37.546Z,1.70
2019-01-28T19:18:36.047Z,1.27
2019-01-28T19:21:13.839Z,1.20
2019-01-28T19:23:43.937Z,1.40
2019-01-28T19:26:13.958Z,1.10
2019-01-28T19:28:44.032Z,1.00
2019-01-28T19:31:14.346Z,1.23
2019-01-28T19:33:44.369Z,0.90
2019-01-28T19:36:14.366Z,0.80
2019-01-28T19:38:45.905Z,0.97
2019-01-28T19:41:18.474Z,0.90
2019-01-28T19:43:48.705Z,1.13
2019-01-28T19:46:19.134Z,1.10
2019-01-28T19:48:49.214Z,1.17
2019-01-28T19:51:19.758Z,1.32
2019-01-28T19:53:49.795Z,0.83
2019-01-28T19:56:19.862Z,1.00
2019-01-28T19:58:50.198Z,1.13
2019-01-28T20:01:20.141Z,1.17
2019-01-28T20:03:50.492Z,1.00
2019-01-28T20:06:20.567Z,1.50
2019-01-28T20:08:50.921Z,1.10
2019-01-28T20:11:21.313Z,1.50
2019-01-28T20:13:51.592Z,1.17
2019-01-28T20:16:21.745Z,0.80
2019-01-28T20:18:52.035Z,1.47
2019-01-28T20:21:23.869Z,1.47
2019-01-28T20:23:54.103Z,1.40
2019-01-28T20:26:24.334Z,0.90
2019-01-28T20:28:54.460Z,1.10
2019-01-28T20:31:24.774Z,1.13
2019-01-28T20:33:54.773Z,1.10
2019-01-28T20:36:24.777Z,1.23
2019-01-28T20:38:54.839Z,1.00
2019-01-28T20:41:24.947Z,1.17
2019-01-28T20:43:54.910Z,1.03
2019-01-28T20:46:24.929Z,1.13
2019-01-28T20:48:55.073Z,0.93
2019-01-28T20:51:32.107Z,1.37
2019-01-28T20:53:57.273Z,1.37
2019-01-28T20:56:27.584Z,0.83
2019-01-28T20:58:58.017Z,1.30
2019-01-28T21:01:28.202Z,1.07
2019-01-28T21:03:58.683Z,1.07
2019-01-28T21:06:28.958Z,1.60
2019-01-28T21:08:59.222Z,1.10
2019-01-28T21:11:29.278Z,0.60
2019-01-28T21:13:59.309Z,1.47
2019-01-28T21:16:29.424Z,1.23
2019-01-28T21:18:59.513Z,0.83
2019-01-28T21:21:29.668Z,1.20
2019-01-28T21:23:59.814Z,0.80
2019-01-28T21:26:29.973Z,1.20
2019-01-28T21:29:00.472Z,0.90
2019-01-28T21:31:31.068Z,1.30
2019-01-28T21:34:01.250Z,1.00
2019-01-28T21:36:56.642Z,0.93
2019-01-28T21:39:27.838Z,0.60
2019-01-28T21:41:57.985Z,0.70
2019-01-28T21:44:28.511Z,1.10
2019-01-28T21:46:58.603Z,1.40
2019-01-28T21:49:28.570Z,0.87
2019-01-28T21:51:58.646Z,1.00
2019-01-28T21:54:28.633Z,1.07
2019-01-28T21:56:58.693Z,0.80
2019-01-28T21:59:28.826Z,0.97
2019-01-28T22:01:58.961Z,0.97
2019-01-28T22:04:28.988Z,0.80
2019-01-28T22:06:58.960Z,0.90
2019-01-28T22:09:29.098Z,0.90
2019-01-28T22:11:59.296Z,1.00
2019-01-28T22:14:29.363Z,1.20
2019-01-28T22:16:59.529Z,1.23
2019-01-28T22:19:29.481Z,1.00
2019-01-28T22:21:59.586Z,1.00
2019-01-28T22:24:29.585Z,1.47
2019-01-28T22:26:59.626Z,0.73
2019-01-28T22:29:29.904Z,0.67
2019-01-28T22:31:59.978Z,0.83
2019-01-28T22:34:30.060Z,1.00
2019-01-28T22:37:00.001Z,1.00
2019-01-28T22:39:30.109Z,1.50
2019-01-28T22:42:00.161Z,0.90
2019-01-28T22:44:30.277Z,0.70
2019-01-28T22:47:00.353Z,0.87
2019-01-28T22:49:30.369Z,0.67
2019-01-28T22:52:07.627Z,0.77
2019-01-28T22:54:32.217Z,0.57
2019-01-28T22:57:02.292Z,0.70
2019-01-28T22:59:32.400Z,0.97
2019-01-28T23:02:02.472Z,1.10
2019-01-28T23:04:33.708Z,0.83
2019-01-28T23:07:04.441Z,0.65
2019-01-28T23:09:34.626Z,0.97
2019-01-28T23:12:05.036Z,0.80
2019-01-28T23:14:35.259Z,0.57
2019-01-28T23:17:05.480Z,0.90
2019-01-28T23:19:35.550Z,0.60
2019-01-28T23:22:05.600Z,1.23
2019-01-28T23:24:35.708Z,0.87
2019-01-28T23:27:05.789Z,0.87
2019-01-28T23:29:35.978Z,0.90
2019-01-28T23:32:06.684Z,0.70
2019-01-28T23:34:37.090Z,0.90
2019-01-28T23:37:07.071Z,1.20
2019-01-28T23:39:37.125Z,0.80
2019-01-28T23:42:07.104Z,0.87
2019-01-28T23:44:37.186Z,0.70
2019-01-28T23:47:07.297Z,0.93
2019-01-28T23:49:37.376Z,0.70
2019-01-28T23:52:07.404Z,0.97
2019-01-28T23:54:37.372Z,1.03
2019-01-28T23:57:07.413Z,0.93
2019-01-28T23:59:37.687Z,0.97
